Time;durP1;ratioP1;P1;durP2;ratioP2;P2;SDS_P1;SDS_P2;PMS_P1;PMS_P2;Temp;Humidity;BMP_temperature;BMP_pressure;BME280_temperature;BME280_humidity;BME280_pressure;Samples;Min_cycle;Max_cycle;Signal;HPM_P1;HPM_P2
2024/01/22 00:00:51;;;;;;;7.03;3.50;;;;;;;2.68;100.00;98761.50;6106703;19;20030;-72
2024/01/22 00:02:51;;;;;;;8.55;3.65;;;;;;;2.74;100.00;98762.97;6106212;19;20012;-72
2024/01/22 00:04:51;;;;;;;6.20;3.45;;;;;;;2.71;100.00;98728.06;6105054;19;20459;-72
2024/01/22 00:06:52;;;;;;;5.38;3.50;;;;;;;2.53;100.00;98732.72;6105367;19;20010;-72
2024/01/22 00:08:52;;;;;;;6.50;3.42;;;;;;;2.23;100.00;98735.22;6105916;19;20011;-72
2024/01/22 00:10:52;;;;;;;6.72;3.72;;;;;;;2.23;100.00;98716.13;6106476;19;20459;-72
2024/01/22 00:12:53;;;;;;;5.05;3.42;;;;;;;2.19;100.00;98708.88;6105862;19;20030;-72
2024/01/22 00:14:53;;;;;;;5.40;3.72;;;;;;;2.36;100.00;98708.91;6105493;19;20103;-72
2024/01/22 00:16:53;;;;;;;9.90;4.10;;;;;;;2.69;100.00;98705.72;6105961;19;20009;-72
2024/01/22 00:18:54;;;;;;;6.65;3.60;;;;;;;2.70;100.00;98696.41;6105284;19;20007;-72
2024/01/22 00:20:54;;;;;;;7.13;3.92;;;;;;;3.03;100.00;98686.59;6106736;19;20348;-72
2024/01/22 00:22:54;;;;;;;6.00;3.72;;;;;;;2.96;100.00;98675.34;6105926;19;20377;-72
2024/01/22 00:24:55;;;;;;;4.75;3.53;;;;;;;3.15;100.00;98657.81;6104234;19;20006;-72
2024/01/22 00:26:55;;;;;;;7.75;4.03;;;;;;;3.25;100.00;98684.81;6113553;19;20456;-72
2024/01/22 00:28:55;;;;;;;6.70;3.88;;;;;;;3.23;100.00;98681.59;6110880;19;20074;-72
2024/01/22 00:30:56;;;;;;;9.23;3.85;;;;;;;3.22;100.00;98691.72;6111999;19;20478;-72
2024/01/22 00:32:56;;;;;;;18.00;7.03;;;;;;;3.04;100.00;98690.13;6111248;19;20114;-72
2024/01/22 00:34:56;;;;;;;10.98;6.30;;;;;;;3.02;100.00;98722.47;6108471;19;20010;-72
2024/01/22 00:36:56;;;;;;;4.28;3.17;;;;;;;3.36;100.00;98692.34;6110326;19;20006;-72
2024/01/22 00:38:57;;;;;;;13.63;4.88;;;;;;;3.40;100.00;98678.81;6109568;19;20006;-72
2024/01/22 00:40:57;;;;;;;5.72;3.33;;;;;;;3.41;100.00;98674.16;6110424;19;20002;-72
2024/01/22 00:42:57;;;;;;;7.03;3.58;;;;;;;3.42;100.00;98682.03;6110742;19;20010;-72
2024/01/22 00:44:58;;;;;;;5.32;3.65;;;;;;;3.34;100.00;98677.38;6108557;19;20028;-72
2024/01/22 00:46:58;;;;;;;6.45;3.70;;;;;;;3.47;100.00;98651.75;6111532;19;20052;-72
2024/01/22 00:48:59;;;;;;;6.15;3.42;;;;;;;3.28;100.00;98656.81;6103352;19;20086;-72
2024/01/22 00:50:59;;;;;;;15.18;5.70;;;;;;;3.31;100.00;98632.34;6104102;19;20430;-72
2024/01/22 00:52:59;;;;;;;6.28;3.80;;;;;;;3.24;100.00;98642.19;6104313;19;20007;-72
2024/01/22 00:54:59;;;;;;;5.03;3.83;;;;;;;3.14;100.00;98620.63;6103039;19;20336;-72
2024/01/22 00:57:00;;;;;;;9.23;4.00;;;;;;;3.19;100.00;98613.06;6103196;19;20002;-72
2024/01/22 00:59:00;;;;;;;5.80;3.65;;;;;;;2.98;100.00;98593.00;6103391;19;20006;-72
2024/01/22 01:01:00;;;;;;;7.40;3.35;;;;;;;2.97;100.00;98616.81;6103943;19;20030;-72
2024/01/22 01:03:01;;;;;;;8.23;3.67;;;;;;;2.86;100.00;98598.34;6103685;19;20005;-72
2024/01/22 01:05:01;;;;;;;6.88;3.85;;;;;;;2.79;100.00;98615.25;6101650;19;19999;-72
2024/01/22 01:07:02;;;;;;;8.13;4.07;;;;;;;2.78;100.00;98605.44;6101867;19;20594;-72
2024/01/22 01:09:02;;;;;;;4.38;3.08;;;;;;;2.64;100.00;98588.41;6102115;19;20019;-72
2024/01/22 01:11:02;;;;;;;5.80;3.88;;;;;;;2.39;100.00;98573.66;6103960;19;20965;-72
2024/01/22 01:13:03;;;;;;;8.75;4.07;;;;;;;2.36;100.00;98574.31;6104379;19;20009;-72
2024/01/22 01:15:07;;;;;;;7.10;3.63;;;;;;;2.56;100.00;98576.38;6102367;19;20534;-72
2024/01/22 01:17:07;;;;;;;7.97;4.03;;;;;;;2.61;100.00;98594.53;6104792;19;20399;-72
2024/01/22 01:19:07;;;;;;;6.03;3.22;;;;;;;2.64;100.00;98572.81;6104859;19;20018;-72
2024/01/22 01:21:07;;;;;;;7.75;3.30;;;;;;;2.72;100.00;98582.94;6104974;19;20006;-72
2024/01/22 01:23:08;;;;;;;5.35;3.08;;;;;;;2.81;100.00;98567.34;6103485;19;20031;-72
2024/01/22 01:25:08;;;;;;;7.20;3.00;;;;;;;2.89;100.00;98584.03;6102218;19;20006;-72
2024/01/22 01:27:08;;;;;;;4.30;2.78;;;;;;;3.04;100.00;98587.06;6104211;19;20030;-72
2024/01/22 01:29:09;;;;;;;5.68;3.53;;;;;;;3.07;100.00;98571.94;6103148;19;20006;-72
2024/01/22 01:31:10;;;;;;;4.43;3.25;;;;;;;3.00;100.00;98563.44;6103525;19;20013;-72
2024/01/22 01:33:10;;;;;;;4.78;3.13;;;;;;;2.93;100.00;98585.00;6103330;19;20007;-72
2024/01/22 01:35:10;;;;;;;6.43;2.90;;;;;;;3.17;100.00;98566.13;6102641;19;20081;-72
2024/01/22 01:37:11;;;;;;;6.40;2.53;;;;;;;3.40;100.00;98524.88;6101793;19;20656;-72
2024/01/22 01:39:12;;;;;;;5.45;3.45;;;;;;;3.35;100.00;98506.69;6102652;19;20454;-72
2024/01/22 01:41:12;;;;;;;8.07;3.15;;;;;;;3.14;100.00;98498.41;6104211;19;20020;-72
2024/01/22 01:43:15;;;;;;;6.95;3.17;;;;;;;3.08;100.00;98508.75;6103399;19;20342;-72
2024/01/22 01:45:15;;;;;;;6.82;2.53;;;;;;;3.07;100.00;98481.75;6102493;19;20003;-72
2024/01/22 01:47:17;;;;;;;5.82;3.05;;;;;;;3.09;100.00;98490.41;6101643;19;19998;-72
2024/01/22 01:49:18;;;;;;;7.10;3.53;;;;;;;3.10;100.00;98481.06;6109094;19;20030;-72
2024/01/22 01:51:20;;;;;;;4.63;2.67;;;;;;;3.11;100.00;98449.88;6108833;19;20402;-72
2024/01/22 01:53:22;;;;;;;5.63;2.63;;;;;;;3.13;100.00;98444.88;6109541;19;20007;-72
2024/01/22 01:55:23;;;;;;;4.53;2.95;;;;;;;3.13;100.00;98444.06;6109392;19;20010;-72
2024/01/22 01:57:25;;;;;;;4.35;2.47;;;;;;;3.14;100.00;98446.47;6110402;19;20006;-72
2024/01/22 01:59:25;;;;;;;5.60;2.75;;;;;;;3.23;100.00;98430.03;6109637;19;20471;-72
2024/01/22 02:01:26;;;;;;;6.15;2.97;;;;;;;3.32;100.00;98419.84;6110248;19;20016;-72
2024/01/22 02:03:26;;;;;;;8.13;3.10;;;;;;;3.37;100.00;98414.16;6110807;19;20013;-72
2024/01/22 02:05:26;;;;;;;4.10;2.63;;;;;;;3.36;100.00;98402.44;6108090;19;20634;-72
2024/01/22 02:07:26;;;;;;;4.65;2.70;;;;;;;3.35;100.00;98400.03;6108441;19;20462;-72
2024/01/22 02:09:49;;;;;;;10.63;2.97;;;;;;;3.29;100.00;98395.88;6110574;19;20346;-72
2024/01/22 02:11:50;;;;;;;4.18;2.42;;;;;;;3.31;100.00;98385.41;6110391;19;20360;-72
2024/01/22 02:13:51;;;;;;;4.00;2.55;;;;;;;3.28;100.00;98370.47;6109121;19;20002;-72
2024/01/22 02:15:52;;;;;;;3.75;2.55;;;;;;;3.46;100.00;98371.16;6108397;19;20329;-72
2024/01/22 02:17:53;;;;;;;3.95;2.58;;;;;;;3.51;100.00;98370.97;6108863;19;20515;-72
2024/01/22 02:19:53;;;;;;;7.45;3.08;;;;;;;3.49;100.00;98361.50;6109492;19;20002;-72
2024/01/22 02:21:53;;;;;;;3.72;2.42;;;;;;;3.44;100.00;98372.63;6108235;19;20017;-72
2024/01/22 02:23:54;;;;;;;7.30;2.60;;;;;;;3.54;100.00;98374.94;6109466;19;20017;-72
2024/01/22 02:25:54;;;;;;;7.68;2.92;;;;;;;3.52;100.00;98372.56;6108000;19;20011;-72
2024/01/22 02:27:54;;;;;;;5.55;3.05;;;;;;;3.65;100.00;98363.28;6108636;19;20014;-72
2024/01/22 02:29:55;;;;;;;4.45;2.70;;;;;;;3.74;100.00;98390.56;6108810;19;20435;-72
2024/01/22 02:31:55;;;;;;;6.15;3.25;;;;;;;3.79;100.00;98409.50;6109312;19;20459;-72
2024/01/22 02:33:55;;;;;;;5.18;3.33;;;;;;;3.78;100.00;98426.25;6108099;19;20348;-72
2024/01/22 02:35:56;;;;;;;4.45;2.65;;;;;;;3.81;100.00;98422.88;6107423;19;20006;-72
2024/01/22 02:37:57;;;;;;;4.57;2.55;;;;;;;3.71;100.00;98431.47;6108764;19;20038;-72
2024/01/22 02:39:57;;;;;;;4.78;2.88;;;;;;;3.69;100.00;98420.84;6109019;19;20027;-72
2024/01/22 02:41:57;;;;;;;4.55;2.80;;;;;;;3.66;100.00;98436.00;6108394;19;20101;-72
2024/01/22 02:43:57;;;;;;;5.22;3.13;;;;;;;3.62;100.00;98442.47;6109343;19;20248;-72
2024/01/22 02:45:58;;;;;;;5.93;3.17;;;;;;;3.52;100.00;98443.69;6107219;19;20011;-72
2024/01/22 02:47:58;;;;;;;5.05;2.83;;;;;;;3.49;100.00;98449.03;6107595;19;20002;-72
2024/01/22 02:50:00;;;;;;;5.55;2.90;;;;;;;3.39;100.00;98450.19;6104172;19;20006;-72
2024/01/22 02:52:00;;;;;;;5.03;2.88;;;;;;;3.41;100.00;98425.25;6108219;19;20086;-72
2024/01/22 02:54:02;;;;;;;5.93;3.00;;;;;;;3.36;100.00;98418.03;6107492;19;20506;-72
2024/01/22 02:56:03;;;;;;;5.17;2.90;;;;;;;3.29;100.00;98415.81;6105846;19;20007;-72
2024/01/22 02:58:03;;;;;;;4.55;2.85;;;;;;;3.17;100.00;98410.28;6106807;19;20028;-72
2024/01/22 03:00:05;;;;;;;3.72;2.63;;;;;;;3.29;100.00;98407.63;6107375;19;20070;-72
2024/01/22 03:02:05;;;;;;;7.05;3.15;;;;;;;3.26;100.00;98408.28;6107376;19;20025;-72
2024/01/22 03:04:06;;;;;;;4.15;2.63;;;;;;;3.22;100.00;98399.13;6106512;19;20066;-72
2024/01/22 03:06:07;;;;;;;4.43;2.70;;;;;;;3.22;100.00;98393.66;6106009;19;19999;-72
2024/01/22 03:08:08;;;;;;;4.35;2.90;;;;;;;3.29;100.00;98380.28;6106331;19;20006;-73
2024/01/22 03:10:08;;;;;;;4.97;3.05;;;;;;;3.13;100.00;98367.53;6107770;19;20483;-72
2024/01/22 03:12:09;;;;;;;3.60;2.88;;;;;;;2.99;100.00;98376.00;6107757;19;20308;-72
2024/01/22 03:14:09;;;;;;;5.43;2.90;;;;;;;3.02;100.00;98380.78;6106720;19;20005;-72
2024/01/22 03:16:10;;;;;;;4.93;2.80;;;;;;;3.11;100.00;98370.59;6106305;19;20028;-72
2024/01/22 03:18:10;;;;;;;4.03;2.55;;;;;;;3.26;100.00;98361.81;6106815;19;20300;-72
2024/01/22 03:20:10;;;;;;;6.43;2.90;;;;;;;3.31;100.00;98347.13;6106705;19;20554;-72
2024/01/22 03:22:11;;;;;;;4.43;2.80;;;;;;;3.26;100.00;98336.41;6105209;19;20006;-72
2024/01/22 03:24:12;;;;;;;5.07;2.78;;;;;;;3.29;100.00;98333.78;6106177;19;20455;-72
2024/01/22 03:26:20;;;;;;;4.25;2.75;;;;;;;3.29;100.00;98355.66;6105944;19;19999;-72
2024/01/22 03:28:21;;;;;;;5.00;2.47;;;;;;;3.32;100.00;98326.88;6108179;19;20649;-72
2024/01/22 03:30:21;;;;;;;5.68;2.95;;;;;;;3.38;100.00;98315.38;6107688;19;20538;-72
2024/01/22 03:32:21;;;;;;;6.38;2.72;;;;;;;3.54;100.00;98322.97;6107831;19;20018;-72
2024/01/22 03:34:22;;;;;;;4.28;2.60;;;;;;;3.54;100.00;98301.88;6107178;19;20003;-72
2024/01/22 03:36:23;;;;;;;3.85;2.67;;;;;;;3.57;100.00;98316.84;6106959;19;20003;-72
2024/01/22 03:38:23;;;;;;;5.63;2.60;;;;;;;3.47;100.00;98290.69;6106324;19;20018;-72
2024/01/22 03:40:24;;;;;;;4.03;2.58;;;;;;;3.48;100.00;98247.75;6107033;19;20027;-72
2024/01/22 03:42:24;;;;;;;4.90;2.70;;;;;;;3.51;100.00;98241.59;6107567;19;20027;-72
2024/01/22 03:44:24;;;;;;;4.15;2.63;;;;;;;3.57;100.00;98226.56;6106623;19;20010;-72
2024/01/22 03:46:25;;;;;;;4.05;2.28;;;;;;;3.69;100.00;98223.84;6106335;19;20366;-72
2024/01/22 03:48:25;;;;;;;4.05;2.40;;;;;;;3.73;100.00;98213.84;6106417;19;20007;-72
2024/01/22 03:50:25;;;;;;;4.15;2.58;;;;;;;3.70;100.00;98200.81;6107862;19;20475;-72
2024/01/22 03:52:25;;;;;;;5.88;2.60;;;;;;;3.62;100.00;98220.88;6105065;19;20010;-72
2024/01/22 03:54:26;;;;;;;4.85;3.05;;;;;;;3.51;100.00;98216.97;6106798;19;20007;-72
2024/01/22 03:56:26;;;;;;;9.88;2.88;;;;;;;3.67;100.00;98216.00;6103968;19;19998;-72
2024/01/22 03:58:26;;;;;;;4.43;2.35;;;;;;;3.71;100.00;98191.47;6106648;19;20119;-72
2024/01/22 04:00:27;;;;;;;3.78;2.58;;;;;;;3.65;100.00;98201.84;6109077;19;20010;-72
2024/01/22 04:02:27;;;;;;;5.78;2.22;;;;;;;3.47;100.00;98188.69;6113311;19;20018;-72
2024/01/22 04:04:28;;;;;;;5.80;3.13;;;;;;;3.25;100.00;98168.81;6110820;19;20018;-72
2024/01/22 04:06:28;;;;;;;5.13;2.72;;;;;;;3.32;100.00;98185.47;6111746;19;20332;-72
2024/01/22 04:08:28;;;;;;;4.28;2.58;;;;;;;3.52;100.00;98142.78;6112787;19;20393;-72
2024/01/22 04:10:28;;;;;;;2.85;2.15;;;;;;;3.57;100.00;98182.81;6112283;19;20081;-72
2024/01/22 04:12:29;;;;;;;3.13;2.33;;;;;;;3.72;100.00;98209.47;6112389;19;20037;-72
2024/01/22 04:14:29;;;;;;;3.67;1.90;;;;;;;3.82;100.00;98206.34;6113715;19;20007;-72
2024/01/22 04:16:29;;;;;;;7.18;2.58;;;;;;;3.90;100.00;98223.78;6111721;19;20010;-72
2024/01/22 04:18:30;;;;;;;4.82;2.20;;;;;;;3.88;100.00;98220.56;6111857;19;20002;-72
2024/01/22 04:20:30;;;;;;;5.65;2.80;;;;;;;3.78;100.00;98204.59;6111752;19;20329;-72
2024/01/22 04:22:30;;;;;;;4.00;2.63;;;;;;;3.64;100.00;98186.59;6112789;19;19999;-72
2024/01/22 04:24:31;;;;;;;3.33;1.98;;;;;;;3.66;100.00;98203.44;6111919;19;20002;-72
2024/01/22 04:26:31;;;;;;;2.58;1.85;;;;;;;3.52;100.00;98200.22;6110630;19;20029;-72
2024/01/22 04:28:31;;;;;;;4.10;2.08;;;;;;;3.61;100.00;98197.38;6111676;19;20085;-72
2024/01/22 04:30:32;;;;;;;5.88;2.20;;;;;;;3.52;100.00;98175.59;6112244;19;20111;-72
2024/01/22 04:32:32;;;;;;;3.72;2.42;;;;;;;3.59;100.00;98199.66;6110912;19;20010;-72
2024/01/22 04:34:32;;;;;;;4.90;2.38;;;;;;;3.44;100.00;98197.56;6111947;19;20143;-72
2024/01/22 04:36:32;;;;;;;3.70;2.35;;;;;;;3.47;100.00;98196.88;6110686;19;20062;-72
2024/01/22 04:38:33;;;;;;;2.95;2.10;;;;;;;3.50;100.00;98177.88;6110591;19;20005;-72
2024/01/22 04:40:33;;;;;;;4.35;2.60;;;;;;;3.53;100.00;98196.34;6112130;19;20029;-72
2024/01/22 04:42:33;;;;;;;5.53;2.45;;;;;;;3.58;100.00;98195.34;6111773;19;20002;-72
2024/01/22 04:44:34;;;;;;;2.47;2.03;;;;;;;3.73;100.00;98175.53;6111390;19;20014;-72
2024/01/22 04:46:34;;;;;;;5.15;2.28;;;;;;;3.66;100.00;98170.63;6110425;19;20022;-72
2024/01/22 04:48:34;;;;;;;4.25;2.10;;;;;;;3.67;100.00;98152.25;6102471;19;20032;-72
2024/01/22 04:50:34;;;;;;;3.20;2.10;;;;;;;3.72;100.00;98154.75;6111623;19;20098;-72
2024/01/22 04:52:35;;;;;;;4.50;2.20;;;;;;;3.76;100.00;98139.28;6111066;19;20010;-72
2024/01/22 04:54:35;;;;;;;3.33;1.75;;;;;;;3.87;100.00;98134.94;6111126;19;20405;-72
2024/01/22 04:56:44;;;;;;;3.90;2.45;;;;;;;3.93;100.00;98100.72;6111484;19;20019;-72
2024/01/22 04:58:45;;;;;;;2.17;1.60;;;;;;;3.96;100.00;98096.50;6110740;19;20411;-72
2024/01/22 05:00:45;;;;;;;6.07;1.85;;;;;;;4.06;100.00;98119.91;6110879;19;20009;-72
2024/01/22 05:02:45;;;;;;;3.15;1.70;;;;;;;4.05;100.00;98138.22;6111105;19;20847;-72
2024/01/22 05:04:46;;;;;;;6.30;1.80;;;;;;;4.25;100.00;98136.50;6109927;19;20002;-72
2024/01/22 05:06:46;;;;;;;4.88;2.22;;;;;;;4.18;100.00;98097.97;6109439;19;20345;-72
2024/01/22 05:08:46;;;;;;;3.13;1.38;;;;;;;4.08;100.00;98095.69;6110692;19;19999;-72
2024/01/22 05:10:46;;;;;;;2.75;2.08;;;;;;;3.97;100.00;98064.44;6109444;19;19999;-72
2024/01/22 05:12:47;;;;;;;3.38;1.90;;;;;;;3.81;100.00;98048.75;6109408;19;20345;-72
2024/01/22 05:14:47;;;;;;;3.40;1.92;;;;;;;3.90;100.00;98043.16;6109490;19;20515;-72
2024/01/22 05:16:48;;;;;;;3.67;1.90;;;;;;;3.91;100.00;98036.53;6110764;19;19998;-72
2024/01/22 05:18:50;;;;;;;2.33;1.77;;;;;;;3.84;100.00;98020.69;6109922;19;20058;-72
2024/01/22 05:20:51;;;;;;;4.25;2.22;;;;;;;3.81;100.00;98028.81;6110904;19;19998;-71
2024/01/22 05:22:51;;;;;;;5.70;1.75;;;;;;;3.88;100.00;98038.00;6110612;19;19999;-71
2024/01/22 05:24:53;;;;;;;2.38;1.70;;;;;;;3.90;100.00;98065.03;6109429;19;20235;-72
2024/01/22 05:26:53;;;;;;;2.20;1.70;;;;;;;3.93;100.00;98015.09;6111547;19;19999;-72
2024/01/22 05:28:53;;;;;;;2.95;1.90;;;;;;;3.83;100.00;98021.03;6110735;19;20001;-72
2024/01/22 05:30:54;;;;;;;3.75;2.00;;;;;;;3.96;100.00;98008.91;6110625;19;20376;-72
2024/01/22 05:32:54;;;;;;;3.75;2.05;;;;;;;3.97;100.00;98013.22;6111111;19;20025;-72
2024/01/22 05:34:54;;;;;;;2.25;1.75;;;;;;;3.94;100.00;98001.03;6109274;19;20461;-72
2024/01/22 05:36:55;;;;;;;3.50;2.08;;;;;;;4.00;100.00;97979.72;6111502;19;20497;-72
2024/01/22 05:38:55;;;;;;;2.67;1.80;;;;;;;3.93;100.00;97993.97;6109881;19;20003;-72
2024/01/22 05:40:56;;;;;;;3.38;1.63;;;;;;;3.87;100.00;98005.50;6110931;19;20007;-72
2024/01/22 05:42:56;;;;;;;1.95;1.40;;;;;;;4.10;100.00;97948.31;6110204;19;20003;-72
2024/01/22 05:44:56;;;;;;;4.45;1.75;;;;;;;4.15;100.00;97978.97;6109208;19;20014;-72
2024/01/22 05:46:57;;;;;;;2.92;1.90;;;;;;;4.23;100.00;97969.03;6109867;19;20022;-72
2024/01/22 05:48:57;;;;;;;2.88;1.75;;;;;;;4.35;100.00;97949.78;6102398;19;20002;-72
2024/01/22 05:50:58;;;;;;;1.92;1.65;;;;;;;4.31;100.00;97956.34;6103106;19;19994;-72
2024/01/22 05:52:58;;;;;;;3.67;1.98;;;;;;;4.27;100.00;97960.91;6102632;19;20007;-72
2024/01/22 05:54:59;;;;;;;2.63;1.63;;;;;;;4.34;100.00;97953.69;6101668;19;20006;-72
2024/01/22 05:57:00;;;;;;;3.30;1.65;;;;;;;4.51;100.00;97961.59;6103251;19;20356;-72
2024/01/22 05:59:00;;;;;;;2.25;1.60;;;;;;;4.42;100.00;97965.63;6102926;19;20003;-72
2024/01/22 06:01:00;;;;;;;3.55;1.60;;;;;;;4.16;100.00;97946.91;6103137;19;20337;-72
2024/01/22 06:03:01;;;;;;;4.60;1.90;;;;;;;4.25;100.00;97963.19;6103172;19;20363;-72
2024/01/22 06:05:02;;;;;;;4.80;1.80;;;;;;;4.21;100.00;97991.25;6102547;19;20002;-72
2024/01/22 06:07:02;;;;;;;3.33;1.70;;;;;;;4.20;100.00;97994.34;6103096;19;20002;-72
2024/01/22 06:09:03;;;;;;;2.03;1.50;;;;;;;4.26;100.00;97967.53;6102865;19;20011;-72
2024/01/22 06:11:04;;;;;;;2.40;1.90;;;;;;;4.07;100.00;97955.28;6103935;19;20020;-72
2024/01/22 06:13:05;;;;;;;2.10;1.48;;;;;;;4.30;100.00;97952.78;6103017;19;20003;-72
2024/01/22 06:15:06;;;;;;;2.78;1.70;;;;;;;4.20;100.00;97945.06;6101633;19;20062;-72
2024/01/22 06:17:06;;;;;;;3.38;1.90;;;;;;;4.17;100.00;97946.56;6103062;19;20006;-72
2024/01/22 06:19:06;;;;;;;2.80;1.60;;;;;;;4.32;100.00;97952.44;6102111;19;20029;-72
2024/01/22 06:21:08;;;;;;;2.30;1.83;;;;;;;4.40;100.00;97952.28;6100184;19;20021;-72
2024/01/22 06:23:08;;;;;;;2.57;1.63;;;;;;;4.54;100.00;97982.00;6100505;19;20436;-72
2024/01/22 06:25:09;;;;;;;2.55;1.58;;;;;;;4.59;100.00;97986.44;6100613;19;20366;-71
2024/01/22 06:27:10;;;;;;;3.90;1.65;;;;;;;4.65;100.00;97987.78;6101581;19;20612;-72
2024/01/22 06:29:13;;;;;;;2.45;1.50;;;;;;;4.74;100.00;98038.53;6099521;19;20010;-71
2024/01/22 06:31:14;;;;;;;1.65;1.30;;;;;;;4.77;100.00;97993.97;6100533;19;20006;-72
2024/01/22 06:33:14;;;;;;;2.67;1.70;;;;;;;4.76;100.00;98002.56;6102340;19;20025;-71
2024/01/22 06:35:15;;;;;;;4.07;1.48;;;;;;;4.81;100.00;98032.47;6100134;19;20390;-72
2024/01/22 06:37:15;;;;;;;3.20;1.75;;;;;;;4.71;100.00;98038.44;6101768;19;20010;-72
2024/01/22 06:39:16;;;;;;;2.45;1.65;;;;;;;4.69;100.00;98032.50;6100141;19;20073;-71
2024/01/22 06:41:18;;;;;;;2.75;1.50;;;;;;;4.78;100.00;98028.44;6101992;19;20002;-71
2024/01/22 06:43:19;;;;;;;;;;;;;;;4.69;100.00;98014.13;6102533;19;20020;-71
2024/01/22 06:45:19;;;;;;;3.00;1.60;;;;;;;4.55;100.00;98013.75;6098123;19;19911;-72
2024/01/22 06:47:19;;;;;;;3.67;1.80;;;;;;;4.57;100.00;98027.09;6100226;19;19999;-72
2024/01/22 06:49:19;;;;;;;2.10;1.30;;;;;;;4.60;100.00;98015.41;6106391;19;20002;-72
2024/01/22 06:51:20;;;;;;;3.08;1.60;;;;;;;4.63;100.00;98029.22;6107864;19;20013;-71
2024/01/22 06:53:20;;;;;;;2.05;1.50;;;;;;;4.76;100.00;98014.31;6108839;19;20735;-72
2024/01/22 06:55:24;;;;;;;2.17;1.60;;;;;;;4.82;100.00;98017.59;6107273;19;20019;-71
2024/01/22 06:57:24;;;;;;;1.85;1.23;;;;;;;4.83;100.00;98005.47;6107388;19;20030;-71
2024/01/22 06:59:24;;;;;;;3.13;1.70;;;;;;;4.90;100.00;98013.09;6106926;19;20349;-72
2024/01/22 07:01:27;;;;;;;1.38;1.17;;;;;;;4.86;100.00;98021.22;6107216;19;20030;-71
2024/01/22 07:03:27;;;;;;;1.38;1.27;;;;;;;4.77;100.00;98017.84;6108610;19;20034;-71
2024/01/22 07:05:29;;;;;;;4.00;1.75;;;;;;;4.76;100.00;97997.06;6105431;19;20002;-72
2024/01/22 07:07:30;;;;;;;2.88;1.55;;;;;;;4.70;100.00;97999.25;6107399;19;20007;-72
2024/01/22 07:09:30;;;;;;;2.38;1.50;;;;;;;4.65;100.00;98015.19;6108674;19;20435;-71
2024/01/22 07:11:31;;;;;;;3.50;1.40;;;;;;;4.74;100.00;98013.88;6108233;19;20396;-71
2024/01/22 07:13:32;;;;;;;3.72;1.40;;;;;;;4.80;100.00;98011.69;6107413;19;20014;-72
2024/01/22 07:15:33;;;;;;;2.53;1.38;;;;;;;4.93;100.00;97995.94;6106429;19;20007;-72
2024/01/22 07:17:33;;;;;;;2.92;1.60;;;;;;;4.82;100.00;97994.88;6106296;19;20474;-72
2024/01/22 07:19:33;;;;;;;12.13;2.08;;;;;;;4.74;100.00;98007.59;6107465;19;20376;-72
2024/01/22 07:21:34;;;;;;;3.35;1.60;;;;;;;4.92;100.00;98013.53;6106990;19;20338;-72
2024/01/22 07:23:34;;;;;;;2.05;1.58;;;;;;;4.93;100.00;98028.84;6107935;19;20007;-72
2024/01/22 07:25:36;;;;;;;2.80;1.83;;;;;;;4.99;100.00;98016.47;6103967;19;20091;-71
2024/01/22 07:27:42;;;;;;;3.75;1.42;;;;;;;5.00;100.00;98021.59;6106491;19;20044;-71
2024/01/22 07:29:42;;;;;;;2.28;1.52;;;;;;;5.11;100.00;98024.59;6107926;19;20013;-71
2024/01/22 07:31:42;;;;;;;2.53;1.42;;;;;;;5.21;100.00;98009.56;6106871;19;20010;-72
2024/01/22 07:33:43;;;;;;;2.38;1.40;;;;;;;5.10;100.00;98030.44;6107139;19;20007;-72
2024/01/22 07:35:43;;;;;;;2.97;1.55;;;;;;;5.13;100.00;98037.97;6107012;19;20006;-72
2024/01/22 07:37:46;;;;;;;1.55;1.30;;;;;;;5.22;100.00;98039.41;6111393;19;20030;-72
2024/01/22 07:39:47;;;;;;;1.65;1.23;;;;;;;5.09;100.00;98048.84;6112962;19;20002;-72
2024/01/22 07:41:47;;;;;;;1.67;1.17;;;;;;;5.06;100.00;98055.06;6112561;19;20439;-72
2024/01/22 07:43:47;;;;;;;1.27;1.15;;;;;;;5.11;100.00;98043.00;6112257;19;20336;-72
2024/01/22 07:45:48;;;;;;;1.60;1.30;;;;;;;5.12;100.00;98048.13;6110324;19;20016;-72
2024/01/22 07:47:49;;;;;;;2.22;1.38;;;;;;;4.99;100.00;98024.69;6112581;19;20006;-72
2024/01/22 07:49:49;;;;;;;2.83;1.23;;;;;;;5.11;100.00;98035.56;6111231;19;20340;-72
2024/01/22 07:51:49;;;;;;;2.35;1.55;;;;;;;5.24;100.00;98022.59;6113219;19;20007;-72
2024/01/22 07:53:50;;;;;;;2.72;1.27;;;;;;;5.15;100.00;98039.22;6111701;19;20615;-72
2024/01/22 07:55:51;;;;;;;1.52;1.20;;;;;;;5.14;100.00;98039.59;6110719;19;20046;-72
2024/01/22 07:57:51;;;;;;;4.10;1.50;;;;;;;5.06;100.00;98016.66;6112143;19;20325;-72
2024/01/22 07:59:52;;;;;;;2.17;1.50;;;;;;;5.10;100.00;98014.78;6111467;19;20005;-72
2024/01/22 08:01:52;;;;;;;1.83;1.40;;;;;;;5.12;100.00;98015.22;6112174;19;19998;-72
2024/01/22 08:03:52;;;;;;;2.28;1.40;;;;;;;5.19;100.00;98006.38;6112152;19;20450;-72
2024/01/22 08:05:52;;;;;;;3.20;1.40;;;;;;;5.20;100.00;98002.50;6108786;19;20327;-72
2024/01/22 08:07:53;;;;;;;1.35;1.13;;;;;;;5.35;100.00;98015.41;6111913;19;20021;-72
2024/01/22 08:09:53;;;;;;;1.45;1.20;;;;;;;5.31;100.00;98000.81;6110088;19;20458;-72
2024/01/22 08:11:53;;;;;;;1.13;1.02;;;;;;;5.15;100.00;98005.53;6112859;19;19994;-72
2024/01/22 08:13:54;;;;;;;5.13;1.55;;;;;;;5.08;100.00;98011.63;6111097;19;20016;-72
2024/01/22 08:15:54;;;;;;;1.50;1.10;;;;;;;5.08;100.00;98037.09;6108632;19;19998;-72
2024/01/22 08:17:55;;;;;;;2.45;1.38;;;;;;;5.06;100.00;98044.09;6111747;19;20218;-72
2024/01/22 08:19:55;;;;;;;1.45;1.05;;;;;;;5.09;100.00;98035.13;6112357;19;20459;-72
2024/01/22 08:21:56;;;;;;;2.88;1.25;;;;;;;5.10;100.00;98022.22;6111373;19;20016;-72
2024/01/22 08:23:56;;;;;;;2.10;1.23;;;;;;;4.88;100.00;98029.09;6111682;19;20006;-72
2024/01/22 08:25:56;;;;;;;2.05;1.00;;;;;;;4.94;100.00;98027.69;6110842;19;20006;-72
2024/01/22 08:27:58;;;;;;;1.73;1.40;;;;;;;4.88;100.00;98038.13;6111958;19;20309;-72
2024/01/22 08:29:58;;;;;;;1.17;1.00;;;;;;;4.87;100.00;98016.53;6111301;19;20010;-73
2024/01/22 08:31:59;;;;;;;2.67;1.25;;;;;;;4.79;100.00;98013.59;6112793;19;20533;-72
2024/01/22 08:34:00;;;;;;;2.08;1.23;;;;;;;4.78;100.00;98025.72;6111014;19;20579;-72
2024/01/22 08:36:00;;;;;;;1.65;1.35;;;;;;;4.71;100.00;97995.38;6110744;19;20010;-72
2024/01/22 08:38:01;;;;;;;1.88;1.38;;;;;;;4.75;100.00;98000.97;6110964;19;20321;-72
2024/01/22 08:40:03;;;;;;;1.20;1.10;;;;;;;4.86;100.00;97993.00;6111528;19;20007;-72
2024/01/22 08:42:03;;;;;;;2.15;1.30;;;;;;;4.73;100.00;97953.94;6110218;19;20351;-72
2024/01/22 08:44:05;;;;;;;2.75;1.38;;;;;;;4.91;100.00;97998.25;6111897;19;20002;-73
2024/01/22 08:46:05;;;;;;;2.03;1.30;;;;;;;4.92;100.00;98003.38;6109328;19;20010;-72
2024/01/22 08:48:06;;;;;;;3.28;1.40;;;;;;;4.88;100.00;98007.16;6111837;19;20003;-73
2024/01/22 08:50:07;;;;;;;2.03;1.35;;;;;;;4.84;100.00;98003.53;6111713;19;20031;-73
2024/01/22 08:52:07;;;;;;;2.67;1.48;;;;;;;4.86;100.00;97991.06;6111938;19;20349;-72
2024/01/22 08:54:08;;;;;;;4.55;1.50;;;;;;;4.92;100.00;97994.34;6109449;19;20002;-72
2024/01/22 08:56:09;;;;;;;1.55;1.20;;;;;;;4.97;100.00;97989.41;6109777;19;20014;-72
2024/01/22 08:58:09;;;;;;;2.92;1.23;;;;;;;4.94;100.00;97981.88;6109132;19;20415;-73
2024/01/22 09:00:10;;;;;;;1.42;1.10;;;;;;;4.98;100.00;97991.00;6111541;19;20003;-73
2024/01/22 09:02:11;;;;;;;2.53;1.40;;;;;;;5.10;100.00;97992.06;6111524;19;20290;-72
2024/01/22 09:04:11;;;;;;;2.78;1.20;;;;;;;5.01;100.00;97979.31;6111215;19;19999;-72
2024/01/22 09:06:11;;;;;;;3.25;1.20;;;;;;;5.08;100.00;97990.47;6110034;19;20055;-73
2024/01/22 09:08:12;;;;;;;1.75;1.45;;;;;;;5.08;100.00;97989.69;6110302;19;20411;-73
2024/01/22 09:10:12;;;;;;;2.50;1.30;;;;;;;5.04;100.00;97981.34;6110795;19;20466;-73
2024/01/22 09:12:12;;;;;;;2.03;1.20;;;;;;;5.03;100.00;97984.44;6110834;19;20501;-73
2024/01/22 09:14:13;;;;;;;2.60;1.20;;;;;;;5.11;100.00;97988.97;6111686;19;20003;-73
2024/01/22 09:16:14;;;;;;;3.08;1.17;;;;;;;5.13;100.00;97975.72;6107367;19;20128;-72
2024/01/22 09:18:15;;;;;;;1.17;1.00;;;;;;;5.14;100.00;97988.28;6109073;19;20557;-72
2024/01/22 09:20:16;;;;;;;4.38;1.05;;;;;;;5.20;100.00;97978.59;6111283;19;20252;-73
2024/01/22 09:22:16;;;;;;;2.55;1.17;;;;;;;5.33;100.00;97990.28;6110683;19;20003;-73
2024/01/22 09:24:17;;;;;;;1.83;1.10;;;;;;;5.34;100.00;97989.13;6109298;19;20483;-73
2024/01/22 09:26:17;;;;;;;1.48;1.05;;;;;;;5.29;100.00;97981.97;6110110;19;20022;-72
2024/01/22 09:28:20;;;;;;;1.35;1.00;;;;;;;5.35;100.00;97985.22;6109464;19;20002;-73